createdAt,value
2018-01-23T04:32:36.551Z,6.60
2018-01-23T04:35:10.785Z,6.60
2018-01-23T04:37:45.288Z,6.70
2018-01-23T04:40:19.072Z,6.60
2018-01-23T04:42:53.614Z,6.70
2018-01-23T04:45:27.330Z,6.70
2018-01-23T04:48:01.148Z,6.70
2018-01-23T04:50:34.975Z,6.70
2018-01-23T04:53:08.755Z,6.60
2018-01-23T04:55:43.496Z,6.70
2018-01-23T04:58:35.386Z,6.70
2018-01-23T05:01:09.100Z,6.70
2018-01-23T05:03:43.752Z,6.70
2018-01-23T05:06:18.207Z,6.70
2018-01-23T05:08:52.076Z,6.70
2018-01-23T05:11:25.813Z,6.70
2018-01-23T05:14:00.357Z,6.70
2018-01-23T05:16:34.931Z,6.70
2018-01-23T05:19:08.631Z,6.70
2018-01-23T05:21:42.387Z,6.70
2018-01-23T05:24:16.163Z,6.70
2018-01-23T05:26:50.100Z,6.70
2018-01-23T05:29:23.879Z,6.70
2018-01-23T05:31:58.560Z,6.70
2018-01-23T05:34:32.403Z,6.70
2018-01-23T05:37:06.204Z,6.70
2018-01-23T05:39:39.972Z,6.70
2018-01-23T05:42:13.847Z,6.70
2018-01-23T05:44:47.671Z,6.70
2018-01-23T05:47:21.388Z,6.60
2018-01-23T05:49:56.055Z,6.70
2018-01-23T05:52:29.820Z,6.70
2018-01-23T05:55:03.641Z,6.70
2018-01-23T05:57:40.037Z,6.70
2018-01-23T06:00:13.771Z,6.70
2018-01-23T06:02:47.612Z,6.70
2018-01-23T06:05:23.296Z,6.70
2018-01-23T06:07:58.179Z,6.70
2018-01-23T06:10:32.748Z,6.70
2018-01-23T06:13:07.328Z,6.70
2018-01-23T06:15:41.909Z,6.70
2018-01-23T06:18:16.494Z,6.70
2018-01-23T06:20:51.335Z,6.70
2018-01-23T06:23:25.068Z,6.70
2018-01-23T06:25:58.925Z,6.70
2018-01-23T06:28:32.608Z,6.70
2018-01-23T06:31:06.715Z,6.60
2018-01-23T06:33:40.911Z,6.50
2018-01-23T06:36:15.439Z,6.40
2018-01-23T06:38:49.638Z,6.40
2018-01-23T06:41:23.380Z,6.40
2018-01-23T06:43:58.839Z,6.40
2018-01-23T06:46:32.562Z,6.40
2018-01-23T06:49:06.488Z,6.40
2018-01-23T06:51:41.091Z,6.50
2018-01-23T06:54:16.047Z,6.50
2018-01-23T06:56:49.903Z,6.50
2018-01-23T06:59:23.628Z,6.60
2018-01-23T07:01:57.351Z,6.60
2018-01-23T07:04:33.191Z,6.60
2018-01-23T07:07:06.822Z,6.50
2018-01-23T07:09:42.337Z,6.30
2018-01-23T07:12:16.216Z,6.30
2018-01-23T07:14:50.286Z,6.30
2018-01-23T07:17:23.867Z,6.40
2018-01-23T07:19:57.651Z,6.40
2018-01-23T07:22:32.197Z,6.40
2018-01-23T07:25:06.049Z,6.40
2018-01-23T07:27:39.796Z,6.50
2018-01-23T07:30:14.379Z,6.40
2018-01-23T07:32:50.881Z,6.40
2018-01-23T07:35:24.782Z,6.40
2018-01-23T07:37:58.924Z,6.40
2018-01-23T07:40:32.535Z,6.50
2018-01-23T07:43:10.199Z,6.50
2018-01-23T07:45:44.773Z,6.50
2018-01-23T07:48:18.556Z,6.50
2018-01-23T07:50:52.376Z,6.50
2018-01-23T07:53:26.200Z,6.60
2018-01-23T07:56:00.111Z,6.60
2018-01-23T07:58:33.899Z,6.60
2018-01-23T08:01:08.520Z,6.60
2018-01-23T08:03:42.391Z,6.60
2018-01-23T08:06:16.184Z,6.60
2018-01-23T08:08:49.992Z,6.70
2018-01-23T08:11:23.779Z,6.70
2018-01-23T08:13:57.591Z,6.70
2018-01-23T08:16:32.172Z,6.80
2018-01-23T08:19:06.032Z,6.80
2018-01-23T08:21:40.580Z,6.90
2018-01-23T08:24:15.847Z,6.90
2018-01-23T08:26:49.600Z,6.80
2018-01-23T08:29:23.371Z,6.90
2018-01-23T08:31:57.974Z,6.90
2018-01-23T08:34:31.796Z,6.90
2018-01-23T08:37:05.552Z,6.90
2018-01-23T08:39:39.235Z,6.90
2018-01-23T08:42:13.680Z,6.90
2018-01-23T08:44:47.719Z,6.90
2018-01-23T08:47:22.323Z,7.00
2018-01-23T08:49:56.113Z,6.90
2018-01-23T08:52:33.555Z,7.00
2018-01-23T08:55:13.381Z,7.00
2018-01-23T08:57:51.269Z,7.00
2018-01-23T09:00:25.100Z,7.10
2018-01-23T09:02:59.730Z,7.20
2018-01-23T09:05:33.475Z,7.20
2018-01-23T09:08:07.320Z,7.30
2018-01-23T09:10:41.156Z,7.30
2018-01-23T09:13:16.928Z,7.30
2018-01-23T09:15:53.925Z,7.30
2018-01-23T09:18:27.757Z,7.40
2018-01-23T09:21:01.644Z,7.40
2018-01-23T09:23:36.183Z,7.30
2018-01-23T09:26:10.059Z,7.30
2018-01-23T09:28:44.025Z,7.30
2018-01-23T09:31:18.672Z,7.40
2018-01-23T09:33:52.368Z,7.30
2018-01-23T09:36:26.463Z,7.30
2018-01-23T09:39:05.888Z,7.40
2018-01-23T09:41:39.770Z,7.40
2018-01-23T09:44:13.616Z,7.40
2018-01-23T09:46:47.387Z,7.50
2018-01-23T09:49:21.043Z,7.60
2018-01-23T09:51:54.915Z,7.60
2018-01-23T09:54:28.701Z,7.60
2018-01-23T09:57:02.988Z,7.70
2018-01-23T09:59:36.868Z,7.70
2018-01-23T10:02:11.182Z,7.70
2018-01-23T10:04:44.758Z,7.80
2018-01-23T10:07:22.999Z,8.10
2018-01-23T10:09:56.676Z,8.10
2018-01-23T10:12:31.243Z,8.20
2018-01-23T10:15:10.748Z,8.20
2018-01-23T10:17:44.656Z,8.20
2018-01-23T10:20:18.328Z,8.20
2018-01-23T10:22:52.099Z,8.30
2018-01-23T10:25:27.088Z,8.40
2018-01-23T10:28:00.828Z,8.40
2018-01-23T10:30:34.623Z,8.40
2018-01-23T10:33:09.160Z,8.40
2018-01-23T10:35:42.951Z,8.30
2018-01-23T10:38:16.752Z,8.40
2018-01-23T10:40:50.569Z,8.40
2018-01-23T10:43:24.328Z,8.40
2018-01-23T10:45:58.407Z,8.40
2018-01-23T10:48:32.409Z,8.50
2018-01-23T10:51:06.089Z,8.50
2018-01-23T10:53:40.980Z,8.40
2018-01-23T10:56:15.564Z,8.30
2018-01-23T10:58:50.385Z,8.30
2018-01-23T11:01:29.772Z,8.40
2018-01-23T11:04:03.560Z,8.50
2018-01-23T11:06:37.439Z,8.50
2018-01-23T11:09:11.333Z,8.40
2018-01-23T11:11:45.142Z,8.50
2018-01-23T11:14:19.154Z,8.60
2018-01-23T11:16:55.702Z,8.80
2018-01-23T11:19:29.597Z,8.70
2018-01-23T11:22:03.410Z,8.80
2018-01-23T11:24:38.173Z,8.90
2018-01-23T11:27:11.872Z,8.90
2018-01-23T11:29:45.704Z,9.10
2018-01-23T11:32:19.621Z,9.30
2018-01-23T11:34:54.133Z,9.50
2018-01-23T11:37:28.516Z,9.60
2018-01-23T11:40:02.499Z,9.60
2018-01-23T11:42:36.264Z,9.50
2018-01-23T11:45:10.985Z,9.60
2018-01-23T11:47:45.803Z,9.70
2018-01-23T11:50:19.664Z,9.90
2018-01-23T11:52:53.542Z,10.00
2018-01-23T11:55:27.287Z,10.00
2018-01-23T11:58:01.017Z,10.10
2018-01-23T12:00:34.904Z,10.20
2018-01-23T12:03:08.623Z,9.90
2018-01-23T12:05:43.183Z,9.90
2018-01-23T12:08:16.994Z,9.90
2018-01-23T12:10:50.885Z,10.20
2018-01-23T12:13:24.761Z,10.50
2018-01-23T12:15:59.906Z,10.50
2018-01-23T12:18:34.486Z,10.50
2018-01-23T12:21:08.999Z,10.20
2018-01-23T12:23:42.996Z,10.20
2018-01-23T12:26:16.848Z,10.10
2018-01-23T12:28:50.698Z,10.00
2018-01-23T12:31:24.428Z,10.00
2018-01-23T12:33:58.108Z,10.00
2018-01-23T12:36:31.821Z,9.90
2018-01-23T12:39:05.516Z,10.00
2018-01-23T12:41:40.183Z,10.00
2018-01-23T12:44:13.963Z,9.90
2018-01-23T12:46:48.143Z,9.90
2018-01-23T12:49:21.991Z,9.90
2018-01-23T12:51:55.808Z,9.70
2018-01-23T12:54:29.640Z,9.70
2018-01-23T12:57:03.419Z,9.80
2018-01-23T12:59:37.287Z,9.80
2018-01-23T13:02:11.112Z,9.80
2018-01-23T13:04:45.232Z,9.80
2018-01-23T13:07:18.913Z,9.70
2018-01-23T13:09:52.903Z,9.60
2018-01-23T13:12:26.932Z,9.70
2018-01-23T13:15:00.987Z,9.60
2018-01-23T13:17:35.639Z,9.60
2018-01-23T13:20:10.511Z,9.60
2018-01-23T13:22:44.431Z,9.60
2018-01-23T13:25:18.483Z,9.60
2018-01-23T13:27:52.266Z,9.30
2018-01-23T13:30:26.884Z,9.20
2018-01-23T13:33:00.658Z,9.20
2018-01-23T13:35:35.108Z,9.00
2018-01-23T13:38:08.858Z,9.10
2018-01-23T13:40:42.615Z,9.10
2018-01-23T13:43:16.314Z,9.20
2018-01-23T13:45:50.161Z,9.30
2018-01-23T13:48:24.643Z,9.30
2018-01-23T13:50:58.386Z,9.30
2018-01-23T13:53:32.533Z,9.40
2018-01-23T13:56:07.187Z,9.50
2018-01-23T13:58:40.871Z,9.50
2018-01-23T14:01:14.456Z,9.50
2018-01-23T14:03:49.019Z,9.50
2018-01-23T14:06:22.801Z,9.50
2018-01-23T14:08:56.613Z,9.40
2018-01-23T14:11:31.163Z,9.20
2018-01-23T14:14:04.976Z,9.20
2018-01-23T14:16:38.768Z,9.30
2018-01-23T14:19:13.457Z,9.30
2018-01-23T14:21:47.276Z,9.30
2018-01-23T14:24:21.903Z,9.40
2018-01-23T14:26:56.532Z,9.40
2018-01-23T14:29:30.392Z,9.40
2018-01-23T14:32:04.248Z,9.40
2018-01-23T14:34:38.059Z,9.30
2018-01-23T14:37:11.808Z,9.30
2018-01-23T14:39:45.557Z,9.40
2018-01-23T14:42:19.364Z,9.30
2018-01-23T14:44:53.160Z,9.30
2018-01-23T14:47:26.912Z,9.40
2018-01-23T14:50:00.748Z,9.40
2018-01-23T14:52:35.221Z,9.30
2018-01-23T14:55:09.057Z,9.30
2018-01-23T14:57:42.811Z,9.30
2018-01-23T15:00:16.630Z,9.30
2018-01-23T15:02:50.442Z,9.30
2018-01-23T15:05:24.225Z,9.40
2018-01-23T15:07:58.037Z,9.30
2018-01-23T15:10:31.744Z,9.30
2018-01-23T15:13:06.675Z,9.30
2018-01-23T15:15:41.371Z,9.20
2018-01-23T15:18:15.264Z,9.20
2018-01-23T15:20:49.941Z,9.20
2018-01-23T15:23:23.798Z,9.20
2018-01-23T15:25:59.269Z,9.10
2018-01-23T15:28:33.025Z,9.10
2018-01-23T15:31:07.532Z,9.10
2018-01-23T15:33:41.166Z,9.10
2018-01-23T15:36:15.741Z,9.10
2018-01-23T15:38:49.611Z,9.10
2018-01-23T15:41:24.760Z,9.10
2018-01-23T15:43:58.523Z,9.00
2018-01-23T15:46:32.264Z,9.00
2018-01-23T15:49:07.115Z,8.90
2018-01-23T15:51:41.823Z,8.90
2018-01-23T15:54:15.716Z,8.90
2018-01-23T15:56:49.467Z,8.90
2018-01-23T15:59:24.119Z,8.90
2018-01-23T16:01:57.803Z,8.90
2018-01-23T16:04:31.660Z,8.90
2018-01-23T16:07:06.236Z,8.90
2018-01-23T16:09:39.959Z,8.80
2018-01-23T16:12:13.956Z,8.90
2018-01-23T16:14:47.855Z,8.90
2018-01-23T16:17:21.697Z,8.90
2018-01-23T16:19:55.569Z,8.90
2018-01-23T16:22:29.475Z,8.90
2018-01-23T16:25:03.060Z,8.90
2018-01-23T16:27:36.939Z,8.90
2018-01-23T16:30:11.801Z,8.90
2018-01-23T16:32:46.255Z,8.80
2018-01-23T16:35:20.063Z,8.80
2018-01-23T16:37:53.917Z,8.90
2018-01-23T16:40:27.724Z,8.80
2018-01-23T16:43:01.569Z,8.90
2018-01-23T16:45:35.140Z,8.90
2018-01-23T16:48:09.023Z,8.90
2018-01-23T16:50:43.699Z,8.90
2018-01-23T16:53:18.324Z,8.90
2018-01-23T16:55:52.112Z,8.90
2018-01-23T16:58:26.923Z,8.90
2018-01-23T17:01:00.765Z,8.90
2018-01-23T17:03:35.309Z,8.80
2018-01-23T17:06:09.075Z,8.80
2018-01-23T17:08:42.838Z,8.70
2018-01-23T17:11:16.564Z,8.70
2018-01-23T17:13:51.340Z,8.70
2018-01-23T17:16:25.171Z,8.70
2018-01-23T17:19:02.809Z,8.70
2018-01-23T17:21:36.647Z,8.60
2018-01-23T17:24:10.451Z,8.60
2018-01-23T17:26:44.259Z,8.60
2018-01-23T17:29:18.087Z,8.60
2018-01-23T17:31:51.779Z,8.60
2018-01-23T17:34:26.388Z,8.60
2018-01-23T17:37:00.097Z,8.60
2018-01-23T17:39:33.910Z,8.50
2018-01-23T17:42:07.652Z,8.50
2018-01-23T17:44:42.264Z,8.40
2018-01-23T17:47:16.745Z,8.40
2018-01-23T17:49:51.200Z,8.30
2018-01-23T17:52:25.183Z,8.30
2018-01-23T17:54:58.885Z,8.30
2018-01-23T17:57:32.814Z,8.20
2018-01-23T18:00:06.554Z,8.20
2018-01-23T18:02:40.356Z,8.10
2018-01-23T18:05:15.059Z,8.00
2018-01-23T18:07:48.823Z,8.00
2018-01-23T18:10:22.565Z,7.90
2018-01-23T18:12:56.437Z,7.80
2018-01-23T18:15:30.980Z,7.60
2018-01-23T18:18:04.860Z,7.60
2018-01-23T18:20:38.610Z,7.50
2018-01-23T18:23:12.490Z,7.50
2018-01-23T18:25:47.183Z,7.30
2018-01-23T18:28:20.988Z,7.30
2018-01-23T18:30:54.718Z,7.20
2018-01-23T18:33:28.755Z,7.00
2018-01-23T18:36:02.754Z,6.90
2018-01-23T18:38:37.788Z,6.70
2018-01-23T18:41:11.735Z,6.70
2018-01-23T18:43:45.615Z,6.60
2018-01-23T18:46:19.529Z,6.40
2018-01-23T18:48:53.338Z,6.30
2018-01-23T18:51:27.132Z,6.30
2018-01-23T18:54:00.980Z,6.30
2018-01-23T18:56:34.759Z,6.20
2018-01-23T18:59:08.775Z,6.30
2018-01-23T19:01:42.462Z,6.30
2018-01-23T19:04:16.309Z,6.20
2018-01-23T19:06:50.104Z,6.10
2018-01-23T19:09:24.720Z,6.10
2018-01-23T19:11:58.428Z,6.10
2018-01-23T19:14:32.426Z,6.20
2018-01-23T19:17:06.416Z,6.30
2018-01-23T19:19:40.341Z,6.20
2018-01-23T19:22:14.820Z,6.10
2018-01-23T19:24:49.403Z,6.10
2018-01-23T19:27:23.957Z,6.00
2018-01-23T19:29:58.568Z,6.00
2018-01-23T19:32:33.253Z,6.00
2018-01-23T19:35:07.187Z,6.00
2018-01-23T19:37:41.036Z,5.90
2018-01-23T19:40:14.980Z,5.90
2018-01-23T19:42:48.756Z,5.80
2018-01-23T19:45:22.585Z,5.90
2018-01-23T19:47:56.302Z,5.90
2018-01-23T19:50:30.100Z,5.90
2018-01-23T19:53:03.940Z,5.90
2018-01-23T19:55:37.837Z,5.80
2018-01-23T19:58:11.675Z,5.80
2018-01-23T20:00:46.426Z,5.80
2018-01-23T20:03:20.180Z,5.80
2018-01-23T20:05:54.588Z,5.90
2018-01-23T20:08:28.388Z,5.90
2018-01-23T20:11:03.067Z,6.00
2018-01-23T20:13:38.394Z,6.00
2018-01-23T20:16:12.888Z,6.10
2018-01-23T20:18:46.637Z,6.10
2018-01-23T20:21:20.470Z,6.10
2018-01-23T20:23:54.236Z,6.10
2018-01-23T20:26:28.115Z,6.20
2018-01-23T20:29:01.956Z,6.20
2018-01-23T20:31:35.735Z,6.20
2018-01-23T20:34:09.499Z,6.30
2018-01-23T20:36:43.240Z,6.30
2018-01-23T20:39:18.085Z,6.30
2018-01-23T20:41:52.899Z,6.30
2018-01-23T20:44:26.767Z,6.30
2018-01-23T20:47:00.691Z,6.30
2018-01-23T20:49:34.575Z,6.40
2018-01-23T20:52:08.434Z,6.40
2018-01-23T20:54:42.240Z,6.40
2018-01-23T20:57:16.080Z,6.50
2018-01-23T20:59:50.437Z,6.50
2018-01-23T21:02:24.867Z,6.50
2018-01-23T21:04:58.710Z,6.50
2018-01-23T21:07:32.492Z,6.50
2018-01-23T21:10:07.035Z,6.30
2018-01-23T21:12:41.721Z,6.30
2018-01-23T21:15:15.436Z,6.30
2018-01-23T21:17:49.334Z,6.20
2018-01-23T21:20:23.092Z,6.20
2018-01-23T21:22:57.403Z,6.20
2018-01-23T21:25:31.134Z,6.20
2018-01-23T21:28:04.982Z,6.20
2018-01-23T21:30:39.490Z,6.10
2018-01-23T21:33:14.131Z,6.10
2018-01-23T21:35:47.971Z,6.10
2018-01-23T21:38:22.455Z,6.30
2018-01-23T21:40:56.283Z,6.30
2018-01-23T21:43:30.182Z,6.40
2018-01-23T21:46:04.071Z,6.50
2018-01-23T21:48:38.796Z,6.60
2018-01-23T21:51:12.561Z,6.60
2018-01-23T21:53:46.309Z,6.70
2018-01-23T21:56:20.120Z,6.70
2018-01-23T21:58:53.856Z,6.70
